sensor_id;sensor_type;location;lat;lon;timestamp;P1;durP1;ratioP1;P2;durP2;ratioP2
36915;SDS011;22836;52.268;9.008;2022-07-22T00:00:09;2.40;;;2.30;;
36915;SDS011;22836;52.268;9.008;2022-07-22T00:04:11;2.75;;;1.92;;
36915;SDS011;22836;52.268;9.008;2022-07-22T00:08:13;2.38;;;2.28;;
36915;SDS011;22836;52.268;9.008;2022-07-22T00:12:15;2.35;;;2.00;;
36915;SDS011;22836;52.268;9.008;2022-07-22T00:16:17;2.50;;;2.40;;
36915;SDS011;22836;52.268;9.008;2022-07-22T00:20:21;2.00;;;1.90;;
36915;SDS011;22836;52.268;9.008;2022-07-22T00:24:24;2.33;;;2.22;;
36915;SDS011;22836;52.268;9.008;2022-07-22T00:28:26;2.55;;;2.35;;
36915;SDS011;22836;52.268;9.008;2022-07-22T00:32:28;1.98;;;1.88;;
36915;SDS011;22836;52.268;9.008;2022-07-22T00:36:30;2.35;;;2.20;;
36915;SDS011;22836;52.268;9.008;2022-07-22T00:40:32;2.60;;;2.33;;
36915;SDS011;22836;52.268;9.008;2022-07-22T00:44:34;2.38;;;2.22;;
36915;SDS011;22836;52.268;9.008;2022-07-22T00:48:38;2.35;;;2.25;;
36915;SDS011;22836;52.268;9.008;2022-07-22T00:52:41;1.63;;;1.53;;
36915;SDS011;22836;52.268;9.008;2022-07-22T00:56:43;1.85;;;1.75;;
36915;SDS011;22836;52.268;9.008;2022-07-22T01:00:45;2.93;;;2.20;;
36915;SDS011;22836;52.268;9.008;2022-07-22T01:04:47;2.13;;;2.03;;
36915;SDS011;22836;52.268;9.008;2022-07-22T01:08:50;1.70;;;1.60;;
36915;SDS011;22836;52.268;9.008;2022-07-22T01:12:58;1.38;;;1.30;;
36915;SDS011;22836;52.268;9.008;2022-07-22T01:16:59;1.40;;;1.30;;
36915;SDS011;22836;52.268;9.008;2022-07-22T01:21:10;1.65;;;1.55;;
36915;SDS011;22836;52.268;9.008;2022-07-22T01:25:13;1.17;;;1.00;;
36915;SDS011;22836;52.268;9.008;2022-07-22T01:29:15;0.98;;;0.90;;
36915;SDS011;22836;52.268;9.008;2022-07-22T01:33:20;1.20;;;1.20;;
36915;SDS011;22836;52.268;9.008;2022-07-22T01:37:23;1.08;;;1.08;;
36915;SDS011;22836;52.268;9.008;2022-07-22T01:41:25;0.73;;;0.73;;
36915;SDS011;22836;52.268;9.008;2022-07-22T01:45:27;1.23;;;0.80;;
36915;SDS011;22836;52.268;9.008;2022-07-22T01:49:29;0.70;;;0.70;;
36915;SDS011;22836;52.268;9.008;2022-07-22T01:53:31;0.85;;;0.85;;
36915;SDS011;22836;52.268;9.008;2022-07-22T01:57:33;0.57;;;0.57;;
36915;SDS011;22836;52.268;9.008;2022-07-22T02:01:36;0.73;;;0.70;;
36915;SDS011;22836;52.268;9.008;2022-07-22T02:05:38;0.55;;;0.55;;
36915;SDS011;22836;52.268;9.008;2022-07-22T02:09:40;0.50;;;0.50;;
36915;SDS011;22836;52.268;9.008;2022-07-22T02:13:42;0.50;;;0.50;;
36915;SDS011;22836;52.268;9.008;2022-07-22T02:17:47;0.60;;;0.60;;
36915;SDS011;22836;52.268;9.008;2022-07-22T02:21:49;0.65;;;0.65;;
36915;SDS011;22836;52.268;9.008;2022-07-22T02:25:51;0.40;;;0.40;;
36915;SDS011;22836;52.268;9.008;2022-07-22T02:29:52;0.60;;;0.60;;
36915;SDS011;22836;52.268;9.008;2022-07-22T02:33:56;0.60;;;0.60;;
36915;SDS011;22836;52.268;9.008;2022-07-22T02:37:58;0.80;;;0.80;;
36915;SDS011;22836;52.268;9.008;2022-07-22T02:42:02;0.70;;;0.70;;
36915;SDS011;22836;52.268;9.008;2022-07-22T02:46:04;0.40;;;0.40;;
36915;SDS011;22836;52.268;9.008;2022-07-22T02:50:06;0.80;;;0.80;;
36915;SDS011;22836;52.268;9.008;2022-07-22T02:54:09;0.85;;;0.80;;
36915;SDS011;22836;52.268;9.008;2022-07-22T02:58:10;1.10;;;1.00;;
36915;SDS011;22836;52.268;9.008;2022-07-22T03:02:12;0.90;;;0.90;;
36915;SDS011;22836;52.268;9.008;2022-07-22T03:06:14;1.05;;;0.95;;
36915;SDS011;22836;52.268;9.008;2022-07-22T03:10:16;0.88;;;0.88;;
36915;SDS011;22836;52.268;9.008;2022-07-22T03:14:18;1.00;;;1.00;;
36915;SDS011;22836;52.268;9.008;2022-07-22T03:18:20;1.50;;;1.10;;
36915;SDS011;22836;52.268;9.008;2022-07-22T03:22:21;0.70;;;0.70;;
36915;SDS011;22836;52.268;9.008;2022-07-22T03:26:23;0.80;;;0.80;;
36915;SDS011;22836;52.268;9.008;2022-07-22T03:30:26;0.73;;;0.73;;
36915;SDS011;22836;52.268;9.008;2022-07-22T03:34:28;1.85;;;0.60;;
36915;SDS011;22836;52.268;9.008;2022-07-22T03:38:30;0.70;;;0.70;;
36915;SDS011;22836;52.268;9.008;2022-07-22T03:42:32;0.60;;;0.60;;
36915;SDS011;22836;52.268;9.008;2022-07-22T03:46:37;1.85;;;0.77;;
36915;SDS011;22836;52.268;9.008;2022-07-22T03:50:39;0.47;;;0.47;;
36915;SDS011;22836;52.268;9.008;2022-07-22T03:54:41;0.50;;;0.50;;
36915;SDS011;22836;52.268;9.008;2022-07-22T03:58:44;0.57;;;0.50;;
36915;SDS011;22836;52.268;9.008;2022-07-22T04:02:45;1.38;;;0.70;;
36915;SDS011;22836;52.268;9.008;2022-07-22T04:06:47;0.63;;;0.63;;
36915;SDS011;22836;52.268;9.008;2022-07-22T04:10:50;0.50;;;0.50;;
36915;SDS011;22836;52.268;9.008;2022-07-22T04:14:51;0.30;;;0.30;;
36915;SDS011;22836;52.268;9.008;2022-07-22T04:18:53;1.73;;;0.80;;
36915;SDS011;22836;52.268;9.008;2022-07-22T04:22:55;0.50;;;0.50;;
36915;SDS011;22836;52.268;9.008;2022-07-22T04:26:57;0.68;;;0.60;;
36915;SDS011;22836;52.268;9.008;2022-07-22T04:31:02;1.55;;;0.50;;
36915;SDS011;22836;52.268;9.008;2022-07-22T04:35:07;0.65;;;0.52;;
36915;SDS011;22836;52.268;9.008;2022-07-22T04:39:10;0.52;;;0.52;;
36915;SDS011;22836;52.268;9.008;2022-07-22T04:43:12;0.90;;;0.90;;
36915;SDS011;22836;52.268;9.008;2022-07-22T04:47:13;0.73;;;0.55;;
36915;SDS011;22836;52.268;9.008;2022-07-22T04:51:15;0.50;;;0.47;;
36915;SDS011;22836;52.268;9.008;2022-07-22T04:55:17;0.60;;;0.50;;
36915;SDS011;22836;52.268;9.008;2022-07-22T04:59:19;1.77;;;0.50;;
36915;SDS011;22836;52.268;9.008;2022-07-22T05:03:21;0.50;;;0.50;;
36915;SDS011;22836;52.268;9.008;2022-07-22T05:07:23;0.80;;;0.80;;
36915;SDS011;22836;52.268;9.008;2022-07-22T05:11:27;0.65;;;0.65;;
36915;SDS011;22836;52.268;9.008;2022-07-22T05:15:29;0.98;;;0.60;;
36915;SDS011;22836;52.268;9.008;2022-07-22T05:19:33;0.82;;;0.70;;
36915;SDS011;22836;52.268;9.008;2022-07-22T05:23:43;0.70;;;0.70;;
36915;SDS011;22836;52.268;9.008;2022-07-22T05:27:52;2.65;;;1.20;;
36915;SDS011;22836;52.268;9.008;2022-07-22T05:31:57;0.82;;;0.70;;
36915;SDS011;22836;52.268;9.008;2022-07-22T05:36:02;0.63;;;0.63;;
36915;SDS011;22836;52.268;9.008;2022-07-22T05:40:05;1.35;;;0.65;;
36915;SDS011;22836;52.268;9.008;2022-07-22T05:44:11;1.15;;;1.02;;
36915;SDS011;22836;52.268;9.008;2022-07-22T05:48:13;0.63;;;0.60;;
36915;SDS011;22836;52.268;9.008;2022-07-22T05:52:15;0.77;;;0.60;;
36915;SDS011;22836;52.268;9.008;2022-07-22T05:56:17;1.02;;;1.02;;
36915;SDS011;22836;52.268;9.008;2022-07-22T06:00:19;3.25;;;1.05;;
36915;SDS011;22836;52.268;9.008;2022-07-22T06:04:21;2.55;;;0.90;;
36915;SDS011;22836;52.268;9.008;2022-07-22T06:08:23;0.82;;;0.82;;
36915;SDS011;22836;52.268;9.008;2022-07-22T06:12:25;1.20;;;1.10;;
36915;SDS011;22836;52.268;9.008;2022-07-22T06:16:27;2.20;;;1.10;;
36915;SDS011;22836;52.268;9.008;2022-07-22T06:20:29;0.90;;;0.90;;
36915;SDS011;22836;52.268;9.008;2022-07-22T06:24:31;1.08;;;0.90;;
36915;SDS011;22836;52.268;9.008;2022-07-22T06:28:32;0.88;;;0.88;;
36915;SDS011;22836;52.268;9.008;2022-07-22T06:32:35;1.10;;;0.93;;
36915;SDS011;22836;52.268;9.008;2022-07-22T06:40:40;0.65;;;0.50;;
36915;SDS011;22836;52.268;9.008;2022-07-22T06:44:43;0.95;;;0.90;;
36915;SDS011;22836;52.268;9.008;2022-07-22T06:48:44;0.75;;;0.75;;
36915;SDS011;22836;52.268;9.008;2022-07-22T06:52:48;0.73;;;0.73;;
36915;SDS011;22836;52.268;9.008;2022-07-22T06:56:50;0.80;;;0.80;;
36915;SDS011;22836;52.268;9.008;2022-07-22T07:00:52;1.80;;;0.85;;
36915;SDS011;22836;52.268;9.008;2022-07-22T07:04:54;1.55;;;0.90;;
36915;SDS011;22836;52.268;9.008;2022-07-22T07:08:56;1.95;;;0.95;;
36915;SDS011;22836;52.268;9.008;2022-07-22T07:13:01;1.60;;;1.00;;
36915;SDS011;22836;52.268;9.008;2022-07-22T07:17:05;1.10;;;1.00;;
36915;SDS011;22836;52.268;9.008;2022-07-22T07:21:12;2.40;;;1.20;;
36915;SDS011;22836;52.268;9.008;2022-07-22T07:25:16;1.48;;;0.85;;
36915;SDS011;22836;52.268;9.008;2022-07-22T07:29:24;1.45;;;0.80;;
36915;SDS011;22836;52.268;9.008;2022-07-22T07:33:27;1.67;;;0.85;;
36915;SDS011;22836;52.268;9.008;2022-07-22T07:37:29;1.83;;;0.90;;
36915;SDS011;22836;52.268;9.008;2022-07-22T07:41:31;1.67;;;1.08;;
36915;SDS011;22836;52.268;9.008;2022-07-22T07:45:33;1.30;;;0.90;;
36915;SDS011;22836;52.268;9.008;2022-07-22T07:49:35;1.30;;;1.10;;
36915;SDS011;22836;52.268;9.008;2022-07-22T07:53:37;1.35;;;0.73;;
36915;SDS011;22836;52.268;9.008;2022-07-22T07:57:38;1.40;;;0.90;;
36915;SDS011;22836;52.268;9.008;2022-07-22T08:01:40;0.88;;;0.77;;
36915;SDS011;22836;52.268;9.008;2022-07-22T08:05:59;1.30;;;0.80;;
36915;SDS011;22836;52.268;9.008;2022-07-22T08:10:03;2.45;;;1.02;;
36915;SDS011;22836;52.268;9.008;2022-07-22T08:14:27;1.08;;;0.88;;
36915;SDS011;22836;52.268;9.008;2022-07-22T08:18:29;1.20;;;1.10;;
36915;SDS011;22836;52.268;9.008;2022-07-22T08:22:31;0.73;;;0.70;;
36915;SDS011;22836;52.268;9.008;2022-07-22T08:26:33;1.73;;;0.93;;
36915;SDS011;22836;52.268;9.008;2022-07-22T08:30:35;0.85;;;0.85;;
36915;SDS011;22836;52.268;9.008;2022-07-22T08:34:37;0.85;;;0.85;;
36915;SDS011;22836;52.268;9.008;2022-07-22T08:38:39;0.88;;;0.88;;
36915;SDS011;22836;52.268;9.008;2022-07-22T08:42:42;1.95;;;1.00;;
36915;SDS011;22836;52.268;9.008;2022-07-22T08:46:47;2.88;;;1.10;;
36915;SDS011;22836;52.268;9.008;2022-07-22T08:50:49;1.00;;;0.77;;
36915;SDS011;22836;52.268;9.008;2022-07-22T08:54:54;0.80;;;0.80;;
36915;SDS011;22836;52.268;9.008;2022-07-22T08:58:58;1.77;;;0.77;;
36915;SDS011;22836;52.268;9.008;2022-07-22T09:03:00;1.10;;;1.08;;
36915;SDS011;22836;52.268;9.008;2022-07-22T09:07:28;3.05;;;0.70;;
36915;SDS011;22836;52.268;9.008;2022-07-22T09:11:38;1.20;;;0.70;;
36915;SDS011;22836;52.268;9.008;2022-07-22T09:15:47;1.80;;;0.93;;
36915;SDS011;22836;52.268;9.008;2022-07-22T09:19:52;3.65;;;0.80;;
36915;SDS011;22836;52.268;9.008;2022-07-22T09:23:53;1.10;;;0.80;;
36915;SDS011;22836;52.268;9.008;2022-07-22T09:32:08;0.73;;;0.70;;
36915;SDS011;22836;52.268;9.008;2022-07-22T09:36:12;0.88;;;0.70;;
36915;SDS011;22836;52.268;9.008;2022-07-22T09:44:21;1.13;;;0.70;;
36915;SDS011;22836;52.268;9.008;2022-07-22T09:48:24;0.65;;;0.65;;
36915;SDS011;22836;52.268;9.008;2022-07-22T09:52:26;0.77;;;0.77;;
36915;SDS011;22836;52.268;9.008;2022-07-22T09:56:28;1.95;;;0.93;;
36915;SDS011;22836;52.268;9.008;2022-07-22T10:00:31;1.53;;;0.77;;
36915;SDS011;22836;52.268;9.008;2022-07-22T10:04:35;1.10;;;0.60;;
36915;SDS011;22836;52.268;9.008;2022-07-22T10:08:41;0.70;;;0.50;;
36915;SDS011;22836;52.268;9.008;2022-07-22T10:12:44;1.40;;;0.80;;
36915;SDS011;22836;52.268;9.008;2022-07-22T10:16:54;0.47;;;0.47;;
36915;SDS011;22836;52.268;9.008;2022-07-22T10:21:03;0.68;;;0.68;;
36915;SDS011;22836;52.268;9.008;2022-07-22T10:25:11;0.60;;;0.60;;
36915;SDS011;22836;52.268;9.008;2022-07-22T10:29:31;0.75;;;0.75;;
36915;SDS011;22836;52.268;9.008;2022-07-22T10:33:43;0.75;;;0.75;;
36915;SDS011;22836;52.268;9.008;2022-07-22T10:37:48;0.60;;;0.60;;
36915;SDS011;22836;52.268;9.008;2022-07-22T10:41:51;0.82;;;0.82;;
36915;SDS011;22836;52.268;9.008;2022-07-22T10:50:17;0.77;;;0.77;;
36915;SDS011;22836;52.268;9.008;2022-07-22T10:54:34;1.27;;;0.93;;
36915;SDS011;22836;52.268;9.008;2022-07-22T10:59:31;0.93;;;0.93;;
36915;SDS011;22836;52.268;9.008;2022-07-22T11:03:34;0.70;;;0.70;;
36915;SDS011;22836;52.268;9.008;2022-07-22T11:07:44;1.10;;;1.10;;
36915;SDS011;22836;52.268;9.008;2022-07-22T11:11:51;1.10;;;1.00;;
36915;SDS011;22836;52.268;9.008;2022-07-22T11:15:56;0.80;;;0.80;;
36915;SDS011;22836;52.268;9.008;2022-07-22T11:20:16;0.85;;;0.85;;
36915;SDS011;22836;52.268;9.008;2022-07-22T11:24:19;1.23;;;1.13;;
36915;SDS011;22836;52.268;9.008;2022-07-22T11:28:22;0.70;;;0.70;;
36915;SDS011;22836;52.268;9.008;2022-07-22T11:32:25;1.30;;;1.20;;
36915;SDS011;22836;52.268;9.008;2022-07-22T11:36:31;2.20;;;1.10;;
36915;SDS011;22836;52.268;9.008;2022-07-22T11:40:35;0.70;;;0.70;;
36915;SDS011;22836;52.268;9.008;2022-07-22T11:44:38;1.40;;;1.05;;
36915;SDS011;22836;52.268;9.008;2022-07-22T11:58:15;0.98;;;0.98;;
36915;SDS011;22836;52.268;9.008;2022-07-22T12:02:17;1.33;;;0.95;;
36915;SDS011;22836;52.268;9.008;2022-07-22T12:06:20;1.90;;;0.98;;
36915;SDS011;22836;52.268;9.008;2022-07-22T12:10:23;0.82;;;0.70;;
36915;SDS011;22836;52.268;9.008;2022-07-22T12:14:29;1.42;;;1.33;;
36915;SDS011;22836;52.268;9.008;2022-07-22T12:18:42;1.83;;;1.40;;
36915;SDS011;22836;52.268;9.008;2022-07-22T12:22:44;0.93;;;0.90;;
36915;SDS011;22836;52.268;9.008;2022-07-22T12:26:47;1.05;;;1.00;;
36915;SDS011;22836;52.268;9.008;2022-07-22T12:30:51;1.00;;;0.95;;
36915;SDS011;22836;52.268;9.008;2022-07-22T12:39:11;1.00;;;1.00;;
36915;SDS011;22836;52.268;9.008;2022-07-22T12:43:21;0.93;;;0.93;;
36915;SDS011;22836;52.268;9.008;2022-07-22T12:47:42;2.25;;;1.10;;
36915;SDS011;22836;52.268;9.008;2022-07-22T12:52:06;0.88;;;0.88;;
36915;SDS011;22836;52.268;9.008;2022-07-22T12:56:13;0.70;;;0.70;;
36915;SDS011;22836;52.268;9.008;2022-07-22T13:00:16;1.90;;;1.00;;
36915;SDS011;22836;52.268;9.008;2022-07-22T13:04:23;1.00;;;1.00;;
36915;SDS011;22836;52.268;9.008;2022-07-22T13:08:28;1.17;;;1.00;;
36915;SDS011;22836;52.268;9.008;2022-07-22T13:12:45;2.30;;;1.20;;
36915;SDS011;22836;52.268;9.008;2022-07-22T13:16:47;1.23;;;1.23;;
36915;SDS011;22836;52.268;9.008;2022-07-22T13:20:49;1.30;;;1.20;;
36915;SDS011;22836;52.268;9.008;2022-07-22T13:24:51;2.03;;;0.90;;
36915;SDS011;22836;52.268;9.008;2022-07-22T13:28:53;2.30;;;1.27;;
36915;SDS011;22836;52.268;9.008;2022-07-22T13:33:09;1.05;;;1.02;;
36915;SDS011;22836;52.268;9.008;2022-07-22T13:37:11;1.23;;;1.17;;
36915;SDS011;22836;52.268;9.008;2022-07-22T13:41:16;1.08;;;1.08;;
36915;SDS011;22836;52.268;9.008;2022-07-22T13:45:19;0.90;;;0.90;;
36915;SDS011;22836;52.268;9.008;2022-07-22T13:49:30;1.93;;;1.07;;
36915;SDS011;22836;52.268;9.008;2022-07-22T13:53:40;1.00;;;1.00;;
36915;SDS011;22836;52.268;9.008;2022-07-22T13:57:42;1.42;;;1.13;;
36915;SDS011;22836;52.268;9.008;2022-07-22T14:01:47;2.78;;;1.70;;
36915;SDS011;22836;52.268;9.008;2022-07-22T14:05:53;1.77;;;1.02;;
36915;SDS011;22836;52.268;9.008;2022-07-22T14:09:57;1.10;;;1.00;;
36915;SDS011;22836;52.268;9.008;2022-07-22T14:14:06;1.05;;;1.05;;
36915;SDS011;22836;52.268;9.008;2022-07-22T14:18:08;1.55;;;1.40;;
36915;SDS011;22836;52.268;9.008;2022-07-22T14:22:13;2.88;;;1.40;;
36915;SDS011;22836;52.268;9.008;2022-07-22T14:26:23;5.90;;;1.38;;
36915;SDS011;22836;52.268;9.008;2022-07-22T14:30:34;1.10;;;1.08;;
36915;SDS011;22836;52.268;9.008;2022-07-22T14:34:55;1.10;;;1.00;;
36915;SDS011;22836;52.268;9.008;2022-07-22T14:39:04;1.27;;;1.20;;
36915;SDS011;22836;52.268;9.008;2022-07-22T14:43:09;1.83;;;1.15;;
36915;SDS011;22836;52.268;9.008;2022-07-22T14:47:37;1.13;;;1.13;;
36915;SDS011;22836;52.268;9.008;2022-07-22T14:51:40;1.40;;;1.30;;
36915;SDS011;22836;52.268;9.008;2022-07-22T14:56:00;1.00;;;1.00;;
36915;SDS011;22836;52.268;9.008;2022-07-22T15:00:03;1.52;;;0.93;;
36915;SDS011;22836;52.268;9.008;2022-07-22T15:04:36;0.85;;;0.85;;
36915;SDS011;22836;52.268;9.008;2022-07-22T15:08:52;1.55;;;1.15;;
36915;SDS011;22836;52.268;9.008;2022-07-22T15:13:07;1.98;;;1.10;;
36915;SDS011;22836;52.268;9.008;2022-07-22T15:22:40;0.95;;;0.95;;
36915;SDS011;22836;52.268;9.008;2022-07-22T15:26:43;0.83;;;0.80;;
36915;SDS011;22836;52.268;9.008;2022-07-22T15:30:45;0.90;;;0.90;;
36915;SDS011;22836;52.268;9.008;2022-07-22T15:34:47;1.50;;;1.00;;
36915;SDS011;22836;52.268;9.008;2022-07-22T15:38:49;1.27;;;1.13;;
36915;SDS011;22836;52.268;9.008;2022-07-22T15:42:58;1.67;;;1.10;;
36915;SDS011;22836;52.268;9.008;2022-07-22T15:47:00;1.10;;;1.10;;
36915;SDS011;22836;52.268;9.008;2022-07-22T15:51:02;1.50;;;1.40;;
36915;SDS011;22836;52.268;9.008;2022-07-22T15:55:04;1.10;;;1.10;;
36915;SDS011;22836;52.268;9.008;2022-07-22T15:59:08;1.65;;;1.27;;
36915;SDS011;22836;52.268;9.008;2022-07-22T16:03:29;1.77;;;1.10;;
36915;SDS011;22836;52.268;9.008;2022-07-22T16:07:31;2.92;;;1.10;;
36915;SDS011;22836;52.268;9.008;2022-07-22T16:11:33;1.13;;;1.00;;
36915;SDS011;22836;52.268;9.008;2022-07-22T16:15:37;1.08;;;1.02;;
36915;SDS011;22836;52.268;9.008;2022-07-22T16:19:42;0.93;;;0.93;;
36915;SDS011;22836;52.268;9.008;2022-07-22T16:23:50;1.85;;;1.10;;
36915;SDS011;22836;52.268;9.008;2022-07-22T16:27:54;1.88;;;1.35;;
36915;SDS011;22836;52.268;9.008;2022-07-22T16:32:04;1.38;;;1.10;;
36915;SDS011;22836;52.268;9.008;2022-07-22T16:36:06;0.90;;;0.90;;
36915;SDS011;22836;52.268;9.008;2022-07-22T16:40:14;0.98;;;0.98;;
36915;SDS011;22836;52.268;9.008;2022-07-22T16:44:21;1.15;;;0.80;;
36915;SDS011;22836;52.268;9.008;2022-07-22T16:48:33;1.63;;;1.20;;
36915;SDS011;22836;52.268;9.008;2022-07-22T16:52:35;1.30;;;1.20;;
36915;SDS011;22836;52.268;9.008;2022-07-22T16:56:40;1.95;;;1.20;;
36915;SDS011;22836;52.268;9.008;2022-07-22T17:00:49;1.02;;;0.90;;
36915;SDS011;22836;52.268;9.008;2022-07-22T17:04:51;0.98;;;0.98;;
36915;SDS011;22836;52.268;9.008;2022-07-22T17:08:58;1.00;;;1.00;;
36915;SDS011;22836;52.268;9.008;2022-07-22T17:13:04;1.15;;;1.10;;
36915;SDS011;22836;52.268;9.008;2022-07-22T17:17:26;1.00;;;0.90;;
36915;SDS011;22836;52.268;9.008;2022-07-22T17:21:28;1.00;;;1.00;;
36915;SDS011;22836;52.268;9.008;2022-07-22T17:25:31;1.00;;;0.88;;
36915;SDS011;22836;52.268;9.008;2022-07-22T17:29:36;1.05;;;1.05;;
36915;SDS011;22836;52.268;9.008;2022-07-22T17:33:38;1.00;;;1.00;;
36915;SDS011;22836;52.268;9.008;2022-07-22T17:37:43;0.70;;;0.70;;
36915;SDS011;22836;52.268;9.008;2022-07-22T17:41:51;0.90;;;0.90;;
36915;SDS011;22836;52.268;9.008;2022-07-22T17:45:56;0.90;;;0.90;;
36915;SDS011;22836;52.268;9.008;2022-07-22T17:49:58;1.20;;;0.90;;
36915;SDS011;22836;52.268;9.008;2022-07-22T17:54:08;1.08;;;1.08;;
36915;SDS011;22836;52.268;9.008;2022-07-22T17:58:16;0.88;;;0.88;;
36915;SDS011;22836;52.268;9.008;2022-07-22T18:02:18;0.90;;;0.90;;
36915;SDS011;22836;52.268;9.008;2022-07-22T18:06:24;1.05;;;1.05;;
36915;SDS011;22836;52.268;9.008;2022-07-22T18:10:29;1.23;;;1.17;;
36915;SDS011;22836;52.268;9.008;2022-07-22T18:14:37;1.13;;;1.10;;
36915;SDS011;22836;52.268;9.008;2022-07-22T18:18:42;1.00;;;1.00;;
36915;SDS011;22836;52.268;9.008;2022-07-22T18:22:46;0.90;;;0.90;;
36915;SDS011;22836;52.268;9.008;2022-07-22T18:26:53;1.08;;;0.98;;
36915;SDS011;22836;52.268;9.008;2022-07-22T18:31:01;0.95;;;0.90;;
36915;SDS011;22836;52.268;9.008;2022-07-22T18:35:03;1.10;;;1.10;;
36915;SDS011;22836;52.268;9.008;2022-07-22T18:39:09;1.00;;;1.00;;
36915;SDS011;22836;52.268;9.008;2022-07-22T18:43:11;1.02;;;0.95;;
36915;SDS011;22836;52.268;9.008;2022-07-22T18:47:17;1.23;;;1.00;;
36915;SDS011;22836;52.268;9.008;2022-07-22T18:55:30;0.70;;;0.70;;
36915;SDS011;22836;52.268;9.008;2022-07-22T18:59:44;1.13;;;1.00;;
36915;SDS011;22836;52.268;9.008;2022-07-22T19:03:52;0.93;;;0.93;;
36915;SDS011;22836;52.268;9.008;2022-07-22T19:07:57;0.95;;;0.90;;
36915;SDS011;22836;52.268;9.008;2022-07-22T19:12:02;1.35;;;0.90;;
36915;SDS011;22836;52.268;9.008;2022-07-22T19:16:07;1.10;;;1.00;;
36915;SDS011;22836;52.268;9.008;2022-07-22T19:20:12;0.85;;;0.85;;
36915;SDS011;22836;52.268;9.008;2022-07-22T19:24:20;1.67;;;0.88;;
36915;SDS011;22836;52.268;9.008;2022-07-22T19:28:22;1.42;;;0.90;;
36915;SDS011;22836;52.268;9.008;2022-07-22T19:32:26;0.90;;;0.90;;
36915;SDS011;22836;52.268;9.008;2022-07-22T19:36:38;1.00;;;1.00;;
36915;SDS011;22836;52.268;9.008;2022-07-22T19:40:43;2.25;;;1.10;;
36915;SDS011;22836;52.268;9.008;2022-07-22T19:44:51;0.90;;;0.90;;
36915;SDS011;22836;52.268;9.008;2022-07-22T19:48:56;1.23;;;0.82;;
36915;SDS011;22836;52.268;9.008;2022-07-22T19:53:02;0.95;;;0.85;;
36915;SDS011;22836;52.268;9.008;2022-07-22T19:57:06;0.90;;;0.90;;
36915;SDS011;22836;52.268;9.008;2022-07-22T20:01:10;1.15;;;1.02;;
36915;SDS011;22836;52.268;9.008;2022-07-22T20:05:15;0.95;;;0.95;;
36915;SDS011;22836;52.268;9.008;2022-07-22T20:09:26;1.00;;;1.00;;
36915;SDS011;22836;52.268;9.008;2022-07-22T20:13:32;1.05;;;1.05;;
36915;SDS011;22836;52.268;9.008;2022-07-22T20:17:40;0.90;;;0.90;;
36915;SDS011;22836;52.268;9.008;2022-07-22T20:21:45;1.10;;;0.98;;
36915;SDS011;22836;52.268;9.008;2022-07-22T20:25:50;1.10;;;1.10;;
36915;SDS011;22836;52.268;9.008;2022-07-22T20:29:55;1.15;;;1.00;;
36915;SDS011;22836;52.268;9.008;2022-07-22T20:34:03;0.80;;;0.80;;
36915;SDS011;22836;52.268;9.008;2022-07-22T20:38:08;1.35;;;0.80;;
36915;SDS011;22836;52.268;9.008;2022-07-22T20:42:13;1.00;;;0.90;;
36915;SDS011;22836;52.268;9.008;2022-07-22T20:46:32;1.10;;;1.10;;
36915;SDS011;22836;52.268;9.008;2022-07-22T20:50:34;0.90;;;0.90;;
36915;SDS011;22836;52.268;9.008;2022-07-22T20:54:36;2.92;;;0.95;;
36915;SDS011;22836;52.268;9.008;2022-07-22T20:58:38;1.10;;;1.00;;
36915;SDS011;22836;52.268;9.008;2022-07-22T21:02:45;1.45;;;0.93;;
36915;SDS011;22836;52.268;9.008;2022-07-22T21:06:50;1.40;;;1.20;;
36915;SDS011;22836;52.268;9.008;2022-07-22T21:10:55;1.10;;;1.10;;
36915;SDS011;22836;52.268;9.008;2022-07-22T21:15:01;1.20;;;1.17;;
36915;SDS011;22836;52.268;9.008;2022-07-22T21:19:09;1.17;;;1.17;;
36915;SDS011;22836;52.268;9.008;2022-07-22T21:23:14;1.38;;;1.27;;
36915;SDS011;22836;52.268;9.008;2022-07-22T21:27:23;1.30;;;1.20;;
36915;SDS011;22836;52.268;9.008;2022-07-22T21:35:34;1.02;;;1.02;;
36915;SDS011;22836;52.268;9.008;2022-07-22T21:39:39;1.35;;;1.33;;
36915;SDS011;22836;52.268;9.008;2022-07-22T21:43:44;1.25;;;1.20;;
36915;SDS011;22836;52.268;9.008;2022-07-22T21:47:48;1.33;;;1.23;;
36915;SDS011;22836;52.268;9.008;2022-07-22T21:51:52;1.13;;;1.10;;
36915;SDS011;22836;52.268;9.008;2022-07-22T21:55:54;1.08;;;1.02;;
36915;SDS011;22836;52.268;9.008;2022-07-22T22:00:07;1.25;;;1.20;;
36915;SDS011;22836;52.268;9.008;2022-07-22T22:04:11;1.38;;;0.98;;
36915;SDS011;22836;52.268;9.008;2022-07-22T22:08:13;1.20;;;1.20;;
36915;SDS011;22836;52.268;9.008;2022-07-22T22:12:17;1.88;;;1.20;;
36915;SDS011;22836;52.268;9.008;2022-07-22T22:16:21;1.10;;;1.00;;
36915;SDS011;22836;52.268;9.008;2022-07-22T22:20:23;1.30;;;1.20;;
36915;SDS011;22836;52.268;9.008;2022-07-22T22:24:25;1.40;;;1.30;;
36915;SDS011;22836;52.268;9.008;2022-07-22T22:28:27;1.05;;;1.00;;
36915;SDS011;22836;52.268;9.008;2022-07-22T22:32:28;1.20;;;1.20;;
36915;SDS011;22836;52.268;9.008;2022-07-22T22:36:30;1.45;;;1.35;;
36915;SDS011;22836;52.268;9.008;2022-07-22T22:40:32;1.20;;;1.20;;
36915;SDS011;22836;52.268;9.008;2022-07-22T22:44:34;1.98;;;1.45;;
36915;SDS011;22836;52.268;9.008;2022-07-22T22:48:36;2.05;;;1.00;;
36915;SDS011;22836;52.268;9.008;2022-07-22T22:52:41;1.00;;;1.00;;
36915;SDS011;22836;52.268;9.008;2022-07-22T22:57:00;3.20;;;1.20;;
36915;SDS011;22836;52.268;9.008;2022-07-22T23:01:02;1.80;;;1.20;;
36915;SDS011;22836;52.268;9.008;2022-07-22T23:05:06;1.20;;;1.20;;
36915;SDS011;22836;52.268;9.008;2022-07-22T23:09:08;1.13;;;1.10;;
36915;SDS011;22836;52.268;9.008;2022-07-22T23:13:10;1.00;;;1.00;;
36915;SDS011;22836;52.268;9.008;2022-07-22T23:17:13;1.63;;;1.40;;
36915;SDS011;22836;52.268;9.008;2022-07-22T23:21:16;1.00;;;1.00;;
36915;SDS011;22836;52.268;9.008;2022-07-22T23:25:18;1.40;;;1.30;;
36915;SDS011;22836;52.268;9.008;2022-07-22T23:29:20;1.15;;;1.15;;
36915;SDS011;22836;52.268;9.008;2022-07-22T23:33:21;1.08;;;1.08;;
36915;SDS011;22836;52.268;9.008;2022-07-22T23:37:24;1.00;;;1.00;;
36915;SDS011;22836;52.268;9.008;2022-07-22T23:41:26;1.00;;;1.00;;
36915;SDS011;22836;52.268;9.008;2022-07-22T23:45:28;2.33;;;1.10;;
36915;SDS011;22836;52.268;9.008;2022-07-22T23:49:30;1.17;;;1.10;;
36915;SDS011;22836;52.268;9.008;2022-07-22T23:53:32;1.20;;;1.10;;
36915;SDS011;22836;52.268;9.008;2022-07-22T23:57:35;1.58;;;1.10;;
